Oscoda, Michigan
Current Conditions -  °F | °C
As of 10:53 PM on Sunday 23 Nov 2014 (Local Time) from KOSC Reporting Station
Moderate Rain Moderate Rain  
Wind Chill: 39°   Ceiling: 200
Heat Index: 43°   Visibility: 2.5mi
Dew Point: 43°   Wind: 7mph
Humidity: 99%   Direction: 90°E
Pressure: 29.38"   Gusts: NA
Location:  44.42°N, 83.33°W
Report Text: KOSC 240353Z AUTO 09006KT 2 1/2SM RA BKN002 BKN013 OVC075 06/06 A2938 RMK AO2 P0009 T00610060
Loading
Personal Weather Stations






























Interactive Weather Map New forecast layout! Learn more

10-Day Weather Forecast

Advertisements
Track Severe Weather on mobile